LZB441 LBPD-LDDU
Flight info
| Callsign | LZB441 |
|---|---|
| Flight time | 1h 2m |
| Altitude | 36000 |
| Route | RUMEN N739 PIDOR T214 LETNI DCT ENFAR DCT RETRA DCT MOKUN |
| Aircraft | A319/M-SDE3FGHIRWY/LB1 |
Departure
| Time | 2026-05-06 17:00 |
|---|---|
| Airport | Plovdiv International Airport (LBPD) |
Arrival
| Time | 2026-05-06 18:02 |
|---|---|
| Airport | Dubrovnik Ruđer Bošković Airport (LDDU) |
| Time | Latitude | Longitude | Altitude | Speed | Heading |
|---|---|---|---|---|---|
| 2026-05-06 16:38 | 42.07640 | 24.84310 | 581 ft | 0 kts | 37° |
| 2026-05-06 16:51 | 42.07629 | 24.84298 | 581 ft | 4 kts | 35° |
| 2026-05-06 16:51 | 42.07606 | 24.84279 | 581 ft | 4 kts | 27° |
| 2026-05-06 16:51 | 42.07582 | 24.84265 | 581 ft | 4 kts | 8° |
| 2026-05-06 16:52 | 42.07559 | 24.84268 | 581 ft | 3 kts | 313° |
| 2026-05-06 16:52 | 42.07557 | 24.84272 | 581 ft | 0 kts | 307° |
| 2026-05-06 16:55 | 42.07558 | 24.84270 | 581 ft | 1 kts | 307° |
| 2026-05-06 16:55 | 42.07570 | 24.84247 | 581 ft | 4 kts | 307° |
| 2026-05-06 16:55 | 42.07594 | 24.84205 | 581 ft | 7 kts | 307° |
| 2026-05-06 16:55 | 42.07625 | 24.84151 | 581 ft | 8 kts | 307° |
| 2026-05-06 16:56 | 42.07661 | 24.84087 | 581 ft | 9 kts | 307° |
| 2026-05-06 16:56 | 42.07655 | 24.84015 | 581 ft | 9 kts | 219° |
| 2026-05-06 16:56 | 42.07593 | 24.83973 | 581 ft | 11 kts | 206° |
| 2026-05-06 16:56 | 42.07552 | 24.83946 | 581 ft | 0 kts | 206° |
| 2026-05-06 16:58 | 42.07550 | 24.83945 | 581 ft | 1 kts | 206° |
| 2026-05-06 16:58 | 42.07535 | 24.83935 | 581 ft | 4 kts | 206° |
| 2026-05-06 16:58 | 42.07501 | 24.83923 | 581 ft | 6 kts | 189° |
| 2026-05-06 16:58 | 42.07455 | 24.83919 | 581 ft | 7 kts | 167° |
| 2026-05-06 16:59 | 42.07425 | 24.83955 | 581 ft | 0 kts | 127° |
| 2026-05-06 16:59 | 42.07417 | 24.83969 | 581 ft | 6 kts | 127° |
| 2026-05-06 16:59 | 42.07277 | 24.84217 | 582 ft | 62 kts | 127° |
| 2026-05-06 16:59 | 42.06895 | 24.84891 | 581 ft | 118 kts | 127° |
| 2026-05-06 17:00 | 42.06311 | 24.85950 | 722 ft | 152 kts | 125° |
| 2026-05-06 17:00 | 42.05702 | 24.87099 | 1340 ft | 151 kts | 124° |
| 2026-05-06 17:00 | 42.05104 | 24.88291 | 1874 ft | 159 kts | 118° |
| 2026-05-06 17:00 | 42.04981 | 24.89874 | 2109 ft | 185 kts | 72° |
| 2026-05-06 17:01 | 42.05849 | 24.91301 | 2273 ft | 218 kts | 30° |
| 2026-05-06 17:01 | 42.07416 | 24.91651 | 2591 ft | 249 kts | 351° |
| 2026-05-06 17:01 | 42.09040 | 24.90590 | 3129 ft | 270 kts | 322° |
| 2026-05-06 17:01 | 42.10435 | 24.88874 | 4130 ft | 273 kts | 314° |
| 2026-05-06 17:02 | 42.11760 | 24.87013 | 5121 ft | 277 kts | 313° |
| 2026-05-06 17:02 | 42.13101 | 24.85152 | 6171 ft | 277 kts | 314° |
| 2026-05-06 17:02 | 42.14485 | 24.83334 | 7149 ft | 278 kts | 316° |
| 2026-05-06 17:02 | 42.15914 | 24.81582 | 8157 ft | 278 kts | 318° |
| 2026-05-06 17:03 | 42.17376 | 24.79876 | 9140 ft | 279 kts | 317° |
| 2026-05-06 17:03 | 42.18634 | 24.77881 | 10023 ft | 282 kts | 303° |
| 2026-05-06 17:03 | 42.19690 | 24.75561 | 10474 ft | 302 kts | 301° |
| 2026-05-06 17:03 | 42.20814 | 24.73042 | 10751 ft | 324 kts | 301° |
| 2026-05-06 17:04 | 42.21985 | 24.70391 | 11347 ft | 332 kts | 301° |
| 2026-05-06 17:04 | 42.23168 | 24.67688 | 12087 ft | 336 kts | 299° |
| 2026-05-06 17:04 | 42.24090 | 24.64774 | 12842 ft | 340 kts | 287° |
| 2026-05-06 17:04 | 42.24685 | 24.61676 | 13600 ft | 343 kts | 285° |
| 2026-05-06 17:05 | 42.25281 | 24.58543 | 14277 ft | 346 kts | 285° |
| 2026-05-06 17:05 | 42.25890 | 24.55383 | 14913 ft | 350 kts | 285° |
| 2026-05-06 17:05 | 42.26509 | 24.52188 | 15539 ft | 354 kts | 286° |
| 2026-05-06 17:05 | 42.27135 | 24.48959 | 16164 ft | 358 kts | 286° |
| 2026-05-06 17:06 | 42.27765 | 24.45691 | 16780 ft | 362 kts | 286° |
| 2026-05-06 17:06 | 42.28399 | 24.42385 | 17399 ft | 366 kts | 286° |
| 2026-05-06 17:06 | 42.29036 | 24.39041 | 18021 ft | 369 kts | 286° |
| 2026-05-06 17:06 | 42.29680 | 24.35666 | 18629 ft | 372 kts | 286° |
| 2026-05-06 17:07 | 42.30283 | 24.32267 | 19219 ft | 375 kts | 281° |
| 2026-05-06 17:07 | 42.30491 | 24.28742 | 19804 ft | 379 kts | 271° |
| 2026-05-06 17:07 | 42.30455 | 24.25170 | 20407 ft | 381 kts | 271° |
| 2026-05-06 17:07 | 42.30422 | 24.21576 | 20980 ft | 384 kts | 271° |
| 2026-05-06 17:08 | 42.30394 | 24.17959 | 21548 ft | 386 kts | 271° |
| 2026-05-06 17:08 | 42.30366 | 24.14271 | 22109 ft | 389 kts | 272° |
| 2026-05-06 17:08 | 42.30338 | 24.10615 | 22647 ft | 391 kts | 271° |
| 2026-05-06 17:08 | 42.30306 | 24.06927 | 23166 ft | 394 kts | 271° |
| 2026-05-06 17:09 | 42.30271 | 24.03220 | 23685 ft | 395 kts | 271° |
| 2026-05-06 17:09 | 42.30235 | 23.99500 | 24137 ft | 397 kts | 271° |
| 2026-05-06 17:09 | 42.30199 | 23.95773 | 24571 ft | 398 kts | 271° |
| 2026-05-06 17:09 | 42.30160 | 23.92020 | 24994 ft | 400 kts | 271° |
| 2026-05-06 17:10 | 42.30117 | 23.88251 | 25426 ft | 402 kts | 271° |
| 2026-05-06 17:10 | 42.30074 | 23.84476 | 25858 ft | 404 kts | 271° |
| 2026-05-06 17:10 | 42.30032 | 23.80674 | 26287 ft | 405 kts | 271° |
| 2026-05-06 17:10 | 42.29989 | 23.76865 | 26705 ft | 407 kts | 271° |
| 2026-05-06 17:11 | 42.29943 | 23.73013 | 27131 ft | 409 kts | 271° |
| 2026-05-06 17:11 | 42.29896 | 23.69181 | 27566 ft | 410 kts | 271° |
| 2026-05-06 17:11 | 42.29847 | 23.65319 | 27975 ft | 412 kts | 271° |
| 2026-05-06 17:11 | 42.29798 | 23.61441 | 28380 ft | 414 kts | 271° |
| 2026-05-06 17:12 | 42.29748 | 23.57545 | 28780 ft | 416 kts | 271° |
| 2026-05-06 17:12 | 42.29696 | 23.53632 | 29175 ft | 417 kts | 271° |
| 2026-05-06 17:12 | 42.29641 | 23.49712 | 29550 ft | 419 kts | 272° |
| 2026-05-06 17:12 | 42.29584 | 23.45766 | 29924 ft | 421 kts | 271° |
| 2026-05-06 17:13 | 42.29526 | 23.41802 | 30249 ft | 423 kts | 271° |
| 2026-05-06 17:13 | 42.29466 | 23.37824 | 30558 ft | 424 kts | 271° |
| 2026-05-06 17:13 | 42.29403 | 23.33842 | 30852 ft | 426 kts | 271° |
| 2026-05-06 17:13 | 42.29341 | 23.29835 | 31142 ft | 427 kts | 271° |
| 2026-05-06 17:14 | 42.29277 | 23.25816 | 31494 ft | 428 kts | 271° |
| 2026-05-06 17:14 | 42.29210 | 23.21815 | 31904 ft | 426 kts | 271° |
| 2026-05-06 17:14 | 42.29140 | 23.17818 | 32328 ft | 425 kts | 271° |
| 2026-05-06 17:14 | 42.29070 | 23.13832 | 32753 ft | 424 kts | 271° |
| 2026-05-06 17:15 | 42.29000 | 23.09858 | 33156 ft | 423 kts | 271° |
| 2026-05-06 17:15 | 42.28908 | 23.05895 | 33575 ft | 422 kts | 268° |
| 2026-05-06 17:15 | 42.28437 | 23.01922 | 33999 ft | 424 kts | 258° |
| 2026-05-06 17:15 | 42.27464 | 22.98158 | 34361 ft | 427 kts | 248° |
| 2026-05-06 17:16 | 42.26014 | 22.94639 | 34713 ft | 431 kts | 240° |
| 2026-05-06 17:16 | 42.24387 | 22.91247 | 35066 ft | 430 kts | 240° |
| 2026-05-06 17:16 | 42.22765 | 22.87857 | 35422 ft | 429 kts | 240° |
| 2026-05-06 17:16 | 42.21152 | 22.84479 | 35762 ft | 429 kts | 240° |
| 2026-05-06 17:17 | 42.19535 | 22.81097 | 35980 ft | 429 kts | 240° |
| 2026-05-06 17:17 | 42.16317 | 22.74368 | 36017 ft | 425 kts | 240° |
| 2026-05-06 17:18 | 42.13109 | 22.67693 | 36018 ft | 424 kts | 240° |
| 2026-05-06 17:18 | 42.10132 | 22.60877 | 36019 ft | 420 kts | 250° |
| 2026-05-06 17:19 | 42.08628 | 22.53371 | 36015 ft | 415 kts | 261° |
| 2026-05-06 17:19 | 42.07492 | 22.45744 | 36018 ft | 416 kts | 261° |
| 2026-05-06 17:20 | 42.06333 | 22.38134 | 36021 ft | 415 kts | 260° |
| 2026-05-06 17:20 | 42.05179 | 22.30527 | 36013 ft | 415 kts | 261° |
| 2026-05-06 17:21 | 42.04030 | 22.22935 | 36009 ft | 414 kts | 261° |
| 2026-05-06 17:21 | 42.02868 | 22.15344 | 35994 ft | 414 kts | 261° |
| 2026-05-06 17:22 | 42.01706 | 22.07765 | 35995 ft | 414 kts | 260° |
| 2026-05-06 17:22 | 42.00728 | 22.01411 | 35985 ft | 414 kts | 260° |
| 2026-05-06 17:23 | 41.99561 | 21.93846 | 35986 ft | 413 kts | 260° |
| 2026-05-06 17:23 | 41.98390 | 21.86287 | 35982 ft | 413 kts | 260° |
| 2026-05-06 17:24 | 41.97208 | 21.78732 | 35978 ft | 413 kts | 260° |
| 2026-05-06 17:24 | 41.96021 | 21.71182 | 35981 ft | 413 kts | 260° |
| 2026-05-06 17:25 | 41.94832 | 21.63632 | 35981 ft | 413 kts | 260° |
| 2026-05-06 17:25 | 41.93638 | 21.56099 | 35979 ft | 413 kts | 260° |
| 2026-05-06 17:26 | 41.92441 | 21.48554 | 35990 ft | 412 kts | 260° |
| 2026-05-06 17:26 | 41.91236 | 21.40983 | 35988 ft | 412 kts | 260° |
| 2026-05-06 17:27 | 41.90026 | 21.33451 | 35993 ft | 412 kts | 259° |
| 2026-05-06 17:27 | 41.88816 | 21.25929 | 36008 ft | 412 kts | 259° |
| 2026-05-06 17:28 | 41.87603 | 21.18418 | 36008 ft | 412 kts | 259° |
| 2026-05-06 17:28 | 41.86379 | 21.10898 | 36031 ft | 412 kts | 259° |
| 2026-05-06 17:29 | 41.85149 | 21.03400 | 36037 ft | 411 kts | 259° |
| 2026-05-06 17:29 | 41.83923 | 20.95918 | 36053 ft | 410 kts | 259° |
| 2026-05-06 17:30 | 41.82694 | 20.88460 | 36050 ft | 410 kts | 259° |
| 2026-05-06 17:30 | 41.81468 | 20.81010 | 36069 ft | 409 kts | 259° |
| 2026-05-06 17:31 | 41.80229 | 20.73568 | 36081 ft | 408 kts | 259° |
| 2026-05-06 17:31 | 41.78987 | 20.66142 | 36086 ft | 408 kts | 259° |
| 2026-05-06 17:32 | 41.77824 | 20.58721 | 36089 ft | 406 kts | 265° |
| 2026-05-06 17:32 | 41.78188 | 20.51253 | 36086 ft | 403 kts | 285° |
| 2026-05-06 17:33 | 41.80424 | 20.44373 | 36091 ft | 404 kts | 296° |
| 2026-05-06 17:33 | 41.83048 | 20.37640 | 36070 ft | 405 kts | 296° |
| 2026-05-06 17:34 | 41.85641 | 20.30937 | 36074 ft | 406 kts | 296° |
| 2026-05-06 17:34 | 41.88240 | 20.24217 | 36073 ft | 406 kts | 296° |
| 2026-05-06 17:35 | 41.90845 | 20.17486 | 36075 ft | 406 kts | 296° |
| 2026-05-06 17:35 | 41.93442 | 20.10765 | 36075 ft | 406 kts | 296° |
| 2026-05-06 17:36 | 41.97337 | 20.00656 | 36084 ft | 406 kts | 295° |
| 2026-05-06 17:36 | 41.98634 | 19.97282 | 35852 ft | 406 kts | 295° |
| 2026-05-06 17:36 | 41.99940 | 19.93885 | 35099 ft | 411 kts | 296° |
| 2026-05-06 17:37 | 42.01254 | 19.90453 | 34349 ft | 415 kts | 296° |
| 2026-05-06 17:37 | 42.02579 | 19.86982 | 33468 ft | 419 kts | 296° |
| 2026-05-06 17:37 | 42.03911 | 19.83492 | 32639 ft | 421 kts | 296° |
| 2026-05-06 17:37 | 42.05250 | 19.79978 | 31828 ft | 423 kts | 296° |
| 2026-05-06 17:38 | 42.06582 | 19.76485 | 31387 ft | 416 kts | 296° |
| 2026-05-06 17:38 | 42.07893 | 19.73046 | 30860 ft | 411 kts | 296° |
| 2026-05-06 17:38 | 42.09189 | 19.69637 | 30347 ft | 407 kts | 296° |
| 2026-05-06 17:38 | 42.10472 | 19.66261 | 29773 ft | 403 kts | 296° |
| 2026-05-06 17:39 | 42.11742 | 19.62923 | 29255 ft | 398 kts | 296° |
| 2026-05-06 17:39 | 42.12994 | 19.59628 | 28748 ft | 393 kts | 295° |
| 2026-05-06 17:39 | 42.14232 | 19.56359 | 28243 ft | 389 kts | 295° |
| 2026-05-06 17:39 | 42.15465 | 19.53091 | 27739 ft | 385 kts | 295° |
| 2026-05-06 17:40 | 42.16655 | 19.49930 | 27247 ft | 381 kts | 295° |
| 2026-05-06 17:40 | 42.17862 | 19.46722 | 26753 ft | 377 kts | 295° |
| 2026-05-06 17:40 | 42.19041 | 19.43586 | 26272 ft | 374 kts | 295° |
| 2026-05-06 17:40 | 42.20212 | 19.40470 | 25805 ft | 371 kts | 295° |
| 2026-05-06 17:41 | 42.21377 | 19.37372 | 25325 ft | 369 kts | 295° |
| 2026-05-06 17:41 | 42.22533 | 19.34288 | 24834 ft | 368 kts | 294° |
| 2026-05-06 17:41 | 42.23472 | 19.31089 | 24359 ft | 367 kts | 288° |
| 2026-05-06 17:41 | 42.24321 | 19.27850 | 23900 ft | 365 kts | 288° |
| 2026-05-06 17:42 | 42.25171 | 19.24623 | 23401 ft | 364 kts | 288° |
| 2026-05-06 17:42 | 42.26015 | 19.21427 | 22942 ft | 360 kts | 288° |
| 2026-05-06 17:42 | 42.26850 | 19.18260 | 22502 ft | 356 kts | 288° |
| 2026-05-06 17:42 | 42.27675 | 19.15127 | 22065 ft | 352 kts | 288° |
| 2026-05-06 17:43 | 42.28487 | 19.12031 | 21628 ft | 348 kts | 288° |
| 2026-05-06 17:43 | 42.29288 | 19.08969 | 21189 ft | 344 kts | 288° |
| 2026-05-06 17:43 | 42.30082 | 19.05935 | 20749 ft | 341 kts | 288° |
| 2026-05-06 17:43 | 42.30867 | 19.02926 | 20293 ft | 339 kts | 287° |
| 2026-05-06 17:44 | 42.31650 | 18.99923 | 19852 ft | 337 kts | 287° |
| 2026-05-06 17:44 | 42.32424 | 18.96947 | 19404 ft | 335 kts | 287° |
| 2026-05-06 17:44 | 42.33197 | 18.93979 | 18942 ft | 334 kts | 287° |
| 2026-05-06 17:44 | 42.33966 | 18.91016 | 18486 ft | 333 kts | 287° |
| 2026-05-06 17:45 | 42.34731 | 18.88063 | 18071 ft | 329 kts | 287° |
| 2026-05-06 17:45 | 42.35479 | 18.85179 | 17994 ft | 326 kts | 287° |
| 2026-05-06 17:45 | 42.36229 | 18.82284 | 17917 ft | 326 kts | 287° |
| 2026-05-06 17:45 | 42.36977 | 18.79392 | 17646 ft | 326 kts | 287° |
| 2026-05-06 17:46 | 42.37721 | 18.76507 | 17207 ft | 325 kts | 287° |
| 2026-05-06 17:46 | 42.38461 | 18.73626 | 16777 ft | 323 kts | 286° |
| 2026-05-06 17:46 | 42.39126 | 18.70721 | 16263 ft | 323 kts | 283° |
| 2026-05-06 17:46 | 42.39697 | 18.67792 | 15815 ft | 321 kts | 281° |
| 2026-05-06 17:47 | 42.40222 | 18.64864 | 15364 ft | 320 kts | 281° |
| 2026-05-06 17:47 | 42.40740 | 18.61909 | 14920 ft | 318 kts | 281° |
| 2026-05-06 17:47 | 42.41255 | 18.59006 | 14480 ft | 317 kts | 281° |
| 2026-05-06 17:47 | 42.41777 | 18.56111 | 14033 ft | 316 kts | 281° |
| 2026-05-06 17:48 | 42.42305 | 18.53224 | 13557 ft | 315 kts | 281° |
| 2026-05-06 17:48 | 42.42834 | 18.50352 | 13097 ft | 313 kts | 281° |
| 2026-05-06 17:48 | 42.43360 | 18.47509 | 12658 ft | 311 kts | 281° |
| 2026-05-06 17:48 | 42.43885 | 18.44676 | 12221 ft | 309 kts | 281° |
| 2026-05-06 17:49 | 42.44405 | 18.41865 | 11793 ft | 307 kts | 281° |
| 2026-05-06 17:49 | 42.44923 | 18.39068 | 11357 ft | 306 kts | 281° |
| 2026-05-06 17:49 | 42.45435 | 18.36288 | 10900 ft | 305 kts | 281° |
| 2026-05-06 17:49 | 42.45945 | 18.33492 | 10451 ft | 305 kts | 281° |
| 2026-05-06 17:50 | 42.46446 | 18.30762 | 10317 ft | 293 kts | 280° |
| 2026-05-06 17:50 | 42.46928 | 18.28129 | 10151 ft | 284 kts | 281° |
| 2026-05-06 17:50 | 42.47397 | 18.25547 | 10094 ft | 282 kts | 280° |
| 2026-05-06 17:50 | 42.47866 | 18.22975 | 10002 ft | 280 kts | 279° |
| 2026-05-06 17:51 | 42.48338 | 18.20397 | 9496 ft | 286 kts | 279° |
| 2026-05-06 17:51 | 42.48811 | 18.17806 | 9192 ft | 281 kts | 281° |
| 2026-05-06 17:51 | 42.49276 | 18.15240 | 8706 ft | 278 kts | 280° |
| 2026-05-06 17:51 | 42.49737 | 18.12692 | 8055 ft | 278 kts | 281° |
| 2026-05-06 17:52 | 42.50197 | 18.10152 | 7474 ft | 276 kts | 280° |
| 2026-05-06 17:52 | 42.50666 | 18.07643 | 6904 ft | 274 kts | 285° |
| 2026-05-06 17:52 | 42.51423 | 18.05266 | 6269 ft | 277 kts | 296° |
| 2026-05-06 17:52 | 42.52342 | 18.02962 | 5622 ft | 277 kts | 294° |
| 2026-05-06 17:53 | 42.53245 | 18.00681 | 5281 ft | 267 kts | 295° |
| 2026-05-06 17:53 | 42.54091 | 17.98542 | 5222 ft | 247 kts | 295° |
| 2026-05-06 17:53 | 42.54869 | 17.96566 | 5137 ft | 230 kts | 295° |
| 2026-05-06 17:53 | 42.55364 | 17.95306 | 5066 ft | 218 kts | 294° |
| 2026-05-06 17:54 | 42.56277 | 17.92988 | 4987 ft | 205 kts | 294° |
| 2026-05-06 17:54 | 42.56728 | 17.91839 | 4984 ft | 204 kts | 293° |
| 2026-05-06 17:54 | 42.57412 | 17.90123 | 4674 ft | 211 kts | 296° |
| 2026-05-06 17:54 | 42.58517 | 17.88773 | 4259 ft | 221 kts | 335° |
| 2026-05-06 17:55 | 42.60025 | 17.88514 | 3971 ft | 217 kts | 13° |
| 2026-05-06 17:55 | 42.61443 | 17.89098 | 3806 ft | 212 kts | 24° |
| 2026-05-06 17:55 | 42.62811 | 17.89796 | 3570 ft | 209 kts | 25° |
| 2026-05-06 17:55 | 42.64125 | 17.90543 | 3556 ft | 202 kts | 36° |
| 2026-05-06 17:56 | 42.65082 | 17.91859 | 3577 ft | 194 kts | 66° |
| 2026-05-06 17:56 | 42.65431 | 17.93567 | 3593 ft | 185 kts | 92° |
| 2026-05-06 17:56 | 42.65506 | 17.95321 | 3592 ft | 186 kts | 91° |
| 2026-05-06 17:56 | 42.65590 | 17.97078 | 3592 ft | 186 kts | 91° |
| 2026-05-06 17:57 | 42.65675 | 17.98832 | 3594 ft | 186 kts | 91° |
| 2026-05-06 17:57 | 42.65759 | 18.00590 | 3595 ft | 187 kts | 91° |
| 2026-05-06 17:57 | 42.65670 | 18.02319 | 3594 ft | 181 kts | 108° |
| 2026-05-06 17:57 | 42.65185 | 18.03898 | 3601 ft | 179 kts | 122° |
| 2026-05-06 17:58 | 42.64598 | 18.05388 | 3591 ft | 180 kts | 121° |
| 2026-05-06 17:58 | 42.64009 | 18.06887 | 3457 ft | 178 kts | 121° |
| 2026-05-06 17:58 | 42.63439 | 18.08336 | 3248 ft | 171 kts | 121° |
| 2026-05-06 17:58 | 42.62886 | 18.09740 | 3026 ft | 166 kts | 121° |
| 2026-05-06 17:59 | 42.62359 | 18.11078 | 2809 ft | 155 kts | 121° |
| 2026-05-06 17:59 | 42.61872 | 18.12315 | 2612 ft | 143 kts | 121° |
| 2026-05-06 17:59 | 42.61419 | 18.13463 | 2439 ft | 134 kts | 121° |
| 2026-05-06 17:59 | 42.60985 | 18.14561 | 2260 ft | 132 kts | 121° |
| 2026-05-06 18:00 | 42.60556 | 18.15649 | 2091 ft | 128 kts | 120° |
| 2026-05-06 18:00 | 42.60141 | 18.16699 | 1920 ft | 124 kts | 121° |
| 2026-05-06 18:00 | 42.59737 | 18.17722 | 1750 ft | 123 kts | 120° |
| 2026-05-06 18:00 | 42.59333 | 18.18743 | 1589 ft | 121 kts | 121° |
| 2026-05-06 18:01 | 42.58938 | 18.19742 | 1413 ft | 120 kts | 120° |
| 2026-05-06 18:01 | 42.58542 | 18.20744 | 1251 ft | 121 kts | 119° |
| 2026-05-06 18:01 | 42.58145 | 18.21748 | 1091 ft | 119 kts | 120° |
| 2026-05-06 18:01 | 42.57753 | 18.22738 | 927 ft | 120 kts | 120° |
| 2026-05-06 18:02 | 42.57353 | 18.23746 | 756 ft | 123 kts | 119° |
| 2026-05-06 18:02 | 42.56953 | 18.24764 | 594 ft | 121 kts | 118° |
| 2026-05-06 18:02 | 42.56584 | 18.25698 | 536 ft | 95 kts | 118° |
| 2026-05-06 18:02 | 42.56354 | 18.26276 | 534 ft | 47 kts | 118° |
| 2026-05-06 18:03 | 42.56231 | 18.26587 | 534 ft | 18 kts | 118° |
| 2026-05-06 18:03 | 42.56159 | 18.26623 | 534 ft | 8 kts | 218° |
| 2026-05-06 18:03 | 42.56138 | 18.26574 | 534 ft | 5 kts | 244° |
| 2026-05-06 18:03 | 42.56118 | 18.26519 | 534 ft | 7 kts | 244° |
| 2026-05-06 18:04 | 42.56101 | 18.26455 | 534 ft | 5 kts | 265° |
| 2026-05-06 18:04 | 42.56109 | 18.26422 | 534 ft | 3 kts | 298° |
| 2026-05-06 18:04 | 42.56123 | 18.26388 | 534 ft | 6 kts | 298° |
| 2026-05-06 18:04 | 42.56129 | 18.26371 | 534 ft | 3 kts | 298° |
| 2026-05-06 18:05 | 42.56130 | 18.26338 | 534 ft | 4 kts | 240° |
| 2026-05-06 18:05 | 42.56103 | 18.26313 | 534 ft | 2 kts | 209° |
| 2026-05-06 18:05 | 42.56091 | 18.26305 | 534 ft | 0 kts | 207° |